Terminal Aerodrome Forecast
Issued by NWS

Home | Current Version | Previous Version | Text Only | Print | Product List | Glossary On
Versions: 1 2 3 4 5 6 7 8 9 10 11 12 13 14
000
FTUS45 KABQ 292343
TAFLVS
TAF
KLVS 292343Z 3000/3024 12011KT P6SM BKN110
     FM300800 07007KT P6SM SCT110
     FM301800 18007KT P6SM FEW090
     FM302030 20010G18KT P6SM SCT090=

USA.gov is the U.S. government's official web portal to all federal, state and local government web resources and services.